Time;durP1;ratioP1;P1;durP2;ratioP2;P2;SDS_P1;SDS_P2;PMS_P1;PMS_P2;Temp;Humidity;BMP_temperature;BMP_pressure;BME280_temperature;BME280_humidity;BME280_pressure;Samples;Min_cycle;Max_cycle;Signal;HPM_P1;HPM_P2
2022/08/07 00:01:00;;;;;;;4.78;2.95;;;11.50;99.90;;;;;;5035556;28;20045;-70
2022/08/07 00:03:27;;;;;;;3.55;2.30;;;11.50;99.90;;;;;;5035865;28;20049;-70
2022/08/07 00:05:53;;;;;;;3.90;2.63;;;11.50;99.90;;;;;;5035621;28;20049;-70
2022/08/07 00:08:21;;;;;;;3.65;2.60;;;11.40;99.90;;;;;;5036198;28;20080;-69
2022/08/07 00:10:48;;;;;;;5.15;3.03;;;11.40;99.90;;;;;;5036008;28;20343;-69
2022/08/07 00:13:14;;;;;;;4.10;2.47;;;11.40;99.90;;;;;;5017801;28;20049;-70
2022/08/07 00:15:40;;;;;;;3.40;2.20;;;11.30;99.90;;;;;;5035556;28;20041;-69
2022/08/07 00:18:07;;;;;;;3.78;2.50;;;11.30;99.90;;;;;;5018009;28;20430;-70
2022/08/07 00:20:34;;;;;;;3.75;2.50;;;11.30;99.90;;;;;;5018645;28;20416;-69
2022/08/07 00:22:59;;;;;;;4.35;2.90;;;11.20;99.90;;;;;;5035962;28;20049;-69
2022/08/07 00:25:25;;;;;;;4.38;2.42;;;11.20;99.90;;;;;;5017947;28;20365;-69
2022/08/07 00:27:51;;;;;;;3.85;2.72;;;11.10;99.90;;;;;;5035140;28;20092;-69
2022/08/07 00:30:17;;;;;;;4.47;3.08;;;11.00;99.90;;;;;;5035730;28;20048;-69
2022/08/07 00:32:47;;;;;;;3.80;2.67;;;11.10;99.90;;;;;;5035104;28;20049;-69
2022/08/07 00:35:12;;;;;;;3.92;2.63;;;11.10;99.90;;;;;;5036064;28;20041;-69
2022/08/07 00:37:38;;;;;;;4.88;3.03;;;11.10;99.90;;;;;;5035119;28;20492;-69
2022/08/07 00:40:04;;;;;;;4.30;2.83;;;11.10;99.90;;;;;;5035060;28;20428;-69
2022/08/07 00:42:32;;;;;;;5.88;3.20;;;11.10;99.90;;;;;;5017624;28;20128;-69
2022/08/07 00:44:58;;;;;;;4.93;3.38;;;11.10;99.90;;;;;;5035688;28;20041;-70
2022/08/07 00:47:24;;;;;;;5.38;3.40;;;11.00;99.90;;;;;;5017926;28;20125;-70
2022/08/07 00:49:49;;;;;;;3.83;2.72;;;11.00;99.90;;;;;;5017906;28;20037;-70
2022/08/07 00:52:15;;;;;;;4.43;3.13;;;11.00;99.90;;;;;;5034842;28;20481;-70
2022/08/07 00:54:41;;;;;;;4.75;2.90;;;11.00;99.90;;;;;;5034734;28;20041;-69
2022/08/07 00:57:08;;;;;;;4.88;3.05;;;11.10;99.90;;;;;;5034788;28;20041;-70
2022/08/07 00:59:36;;;;;;;4.20;3.00;;;11.00;99.90;;;;;;5017204;28;20045;-70
2022/08/07 01:02:04;;;;;;;3.85;2.83;;;11.00;99.90;;;;;;5035185;28;20140;-69
2022/08/07 01:04:30;;;;;;;5.13;3.05;;;10.90;99.90;;;;;;5034505;28;20086;-70
2022/08/07 01:06:56;;;;;;;5.15;3.13;;;10.70;99.90;;;;;;5034777;28;20073;-70
2022/08/07 01:09:22;;;;;;;4.10;2.90;;;10.60;99.90;;;;;;5034703;28;20426;-70
2022/08/07 01:11:50;;;;;;;4.47;2.90;;;10.50;99.90;;;;;;5034153;28;20455;-70
2022/08/07 01:14:16;;;;;;;4.85;3.30;;;10.50;99.90;;;;;;5034413;28;20041;-70
2022/08/07 01:16:42;;;;;;;4.97;3.20;;;10.50;99.90;;;;;;5034346;28;20041;-70
2022/08/07 01:19:08;;;;;;;5.82;3.80;;;10.50;99.90;;;;;;5035116;28;20074;-70
2022/08/07 01:21:34;;;;;;;5.30;3.22;;;10.50;99.90;;;;;;5034279;28;20482;-70
2022/08/07 01:24:01;;;;;;;4.10;2.90;;;10.50;99.90;;;;;;5034779;28;20049;-70
2022/08/07 01:26:27;;;;;;;4.70;3.00;;;10.40;99.90;;;;;;5034254;28;20056;-70
2022/08/07 01:28:53;;;;;;;4.82;3.00;;;10.40;99.90;;;;;;5033810;28;20053;-70
2022/08/07 01:31:20;;;;;;;5.25;3.30;;;10.40;99.90;;;;;;5034071;28;20045;-70
2022/08/07 01:33:46;;;;;;;5.25;3.78;;;10.30;99.90;;;;;;5016727;28;20052;-70
2022/08/07 01:36:12;;;;;;;4.47;2.78;;;10.40;99.90;;;;;;5033992;28;20041;-69
2022/08/07 01:38:38;;;;;;;5.22;3.30;;;10.40;99.90;;;;;;5034697;28;20118;-69
2022/08/07 01:41:06;;;;;;;5.35;3.90;;;10.40;99.90;;;;;;5033851;28;20048;-70
2022/08/07 01:43:32;;;;;;;4.65;3.25;;;10.40;99.90;;;;;;5033898;28;20067;-70
2022/08/07 01:45:58;;;;;;;5.15;3.08;;;10.50;99.90;;;;;;5033825;28;20052;-70
2022/08/07 01:48:25;;;;;;;4.55;3.30;;;10.50;99.90;;;;;;5033499;28;20049;-70
2022/08/07 01:51:03;;;;;;;4.82;3.33;;;10.40;99.90;;;;;;5033684;28;20041;-69
2022/08/07 01:53:33;;;;;;;6.40;3.85;;;10.50;99.90;;;;;;5034335;28;20041;-69
2022/08/07 01:56:04;;;;;;;4.50;3.15;;;10.50;99.90;;;;;;5033704;28;20037;-69
2022/08/07 01:58:36;;;;;;;5.80;3.42;;;10.60;99.90;;;;;;5034253;28;20056;-69
2022/08/07 02:01:08;;;;;;;4.97;3.33;;;10.60;99.90;;;;;;5016991;28;20335;-69
2022/08/07 02:03:37;;;;;;;7.07;3.35;;;10.60;99.90;;;;;;5034152;28;20386;-69
2022/08/07 02:06:09;;;;;;;6.38;3.20;;;10.60;99.90;;;;;;5033642;28;20462;-69
2022/08/07 02:08:39;;;;;;;5.75;3.80;;;10.50;99.90;;;;;;5033593;28;20037;-69
2022/08/07 02:11:07;;;;;;;4.93;3.20;;;10.60;99.90;;;;;;5034370;28;20362;-69
2022/08/07 02:13:35;;;;;;;4.03;2.88;;;10.60;99.90;;;;;;5016080;28;20046;-69
2022/08/07 02:16:03;;;;;;;4.78;3.20;;;10.70;99.90;;;;;;5033376;28;20045;-69
2022/08/07 02:18:30;;;;;;;5.57;3.53;;;10.80;99.90;;;;;;5033303;28;20382;-70
2022/08/07 02:20:57;;;;;;;5.38;3.75;;;10.80;99.90;;;;;;5032539;28;20041;-70
2022/08/07 02:23:24;;;;;;;5.70;3.42;;;10.70;99.90;;;;;;5034134;28;20171;-70
2022/08/07 02:25:52;;;;;;;5.70;3.55;;;10.70;99.90;;;;;;5033589;28;20093;-70
2022/08/07 02:28:20;;;;;;;4.85;3.33;;;10.60;99.90;;;;;;5033066;28;20049;-69
2022/08/07 02:30:47;;;;;;;5.80;3.63;;;10.60;99.90;;;;;;5033259;28;20135;-69
2022/08/07 02:33:14;;;;;;;4.68;3.13;;;10.60;99.90;;;;;;5033615;28;20050;-70
2022/08/07 02:35:41;;;;;;;5.95;3.30;;;10.40;99.90;;;;;;5033145;28;20045;-69
2022/08/07 02:38:08;;;;;;;5.43;3.30;;;10.60;99.90;;;;;;5033725;28;20089;-69
2022/08/07 02:40:37;;;;;;;4.25;3.05;;;10.60;99.90;;;;;;5015701;28;20518;-70
2022/08/07 02:43:05;;;;;;;4.50;3.15;;;10.60;99.90;;;;;;5033060;28;20092;-69
2022/08/07 02:45:32;;;;;;;5.25;3.05;;;10.60;99.90;;;;;;5033096;28;20081;-69
2022/08/07 02:47:58;;;;;;;4.53;3.08;;;10.60;99.90;;;;;;5033063;28;20045;-69
2022/08/07 02:50:24;;;;;;;4.35;2.95;;;10.60;99.90;;;;;;5015681;28;20125;-69
2022/08/07 02:53:08;;;;;;;4.28;3.00;;;10.60;99.90;;;;;;5033056;28;20081;-69
2022/08/07 02:55:36;;;;;;;5.45;3.20;;;10.60;99.90;;;;;;5033838;28;20077;-69
2022/08/07 02:58:05;;;;;;;4.55;3.50;;;10.40;99.90;;;;;;5033022;28;20048;-69
2022/08/07 03:00:33;;;;;;;5.40;3.75;;;10.40;99.90;;;;;;5032875;28;20200;-69
2022/08/07 03:03:01;;;;;;;6.55;3.85;;;10.40;99.90;;;;;;5033588;28;20033;-70
2022/08/07 03:05:27;;;;;;;6.22;4.10;;;10.40;99.90;;;;;;5032878;28;20045;-70
2022/08/07 03:07:55;;;;;;;6.28;3.63;;;10.40;99.90;;;;;;5032950;28;20093;-69
2022/08/07 03:10:22;;;;;;;6.93;4.05;;;10.30;99.90;;;;;;5032793;28;20096;-69
2022/08/07 03:12:48;;;;;;;7.68;4.97;;;10.30;99.90;;;;;;5032766;28;20083;-69
2022/08/07 03:15:15;;;;;;;5.55;3.80;;;10.30;99.90;;;;;;5032790;28;20045;-69
2022/08/07 03:17:41;;;;;;;6.90;4.72;;;10.20;99.90;;;;;;5032837;28;20056;-69
2022/08/07 03:20:07;;;;;;;5.90;4.32;;;10.20;99.90;;;;;;5032762;28;20037;-69
2022/08/07 03:22:34;;;;;;;5.05;3.28;;;10.20;99.90;;;;;;5015112;28;20049;-69
2022/08/07 03:25:01;;;;;;;5.18;3.67;;;10.10;99.90;;;;;;5033126;28;20477;-69
2022/08/07 03:27:28;;;;;;;6.00;3.55;;;10.10;99.90;;;;;;5032343;28;20041;-70
2022/08/07 03:29:55;;;;;;;6.07;3.30;;;10.10;99.90;;;;;;5033095;28;20038;-69
2022/08/07 03:32:42;;;;;;;3.63;2.40;;;10.10;99.90;;;;;;5017639;28;20171;-70
2022/08/07 03:35:21;;;;;;;5.00;3.53;;;10.10;99.90;;;;;;5037122;28;20139;-70
2022/08/07 03:37:52;;;;;;;5.32;3.20;;;10.00;99.90;;;;;;5019070;28;20352;-70
2022/08/07 03:40:19;;;;;;;5.78;3.15;;;9.90;99.90;;;;;;5036892;28;20045;-69
2022/08/07 03:42:45;;;;;;;5.00;3.30;;;9.90;99.90;;;;;;5018384;28;20045;-70
2022/08/07 03:45:11;;;;;;;5.38;2.78;;;9.90;99.90;;;;;;5036056;28;20136;-69
2022/08/07 03:47:37;;;;;;;4.57;3.03;;;9.90;99.90;;;;;;5018885;28;20151;-69
2022/08/07 03:50:04;;;;;;;5.95;3.30;;;9.90;99.90;;;;;;5035892;28;20045;-69
2022/08/07 03:52:31;;;;;;;5.22;2.80;;;9.90;99.90;;;;;;5018534;28;20489;-69
2022/08/07 03:54:58;;;;;;;5.78;3.47;;;9.70;99.90;;;;;;5036429;28;20037;-69
2022/08/07 03:57:26;;;;;;;5.88;3.95;;;9.70;99.90;;;;;;5018200;28;20045;-69
2022/08/07 03:59:53;;;;;;;6.30;4.10;;;9.70;99.90;;;;;;5035230;28;20034;-69
2022/08/07 04:02:19;;;;;;;5.57;3.80;;;9.70;99.90;;;;;;5035141;28;20095;-69
2022/08/07 04:04:44;;;;;;;5.55;3.53;;;9.70;99.90;;;;;;5035510;28;20041;-69
2022/08/07 04:07:10;;;;;;;4.95;3.20;;;9.70;99.90;;;;;;5035631;28;20132;-70
2022/08/07 04:09:37;;;;;;;6.53;3.72;;;9.80;99.90;;;;;;5035722;28;20045;-70
2022/08/07 04:12:04;;;;;;;5.47;3.65;;;9.70;99.90;;;;;;5036100;28;20045;-70
2022/08/07 04:14:30;;;;;;;6.40;3.75;;;9.70;99.90;;;;;;5035609;28;20049;-70
2022/08/07 04:16:56;;;;;;;5.57;3.55;;;9.80;99.90;;;;;;5018890;28;20041;-70
2022/08/07 04:19:24;;;;;;;4.32;3.15;;;9.80;99.90;;;;;;5035457;28;20378;-69
2022/08/07 04:21:50;;;;;;;5.68;3.72;;;9.70;99.90;;;;;;5035983;28;20049;-70
2022/08/07 04:24:16;;;;;;;5.88;3.45;;;9.60;99.90;;;;;;5035814;28;20076;-70
2022/08/07 04:26:42;;;;;;;4.78;3.00;;;9.60;99.90;;;;;;5035925;28;20087;-69
2022/08/07 04:29:10;;;;;;;6.07;3.30;;;9.70;99.90;;;;;;5035727;28;20104;-69
2022/08/07 04:31:40;;;;;;;5.55;3.50;;;9.70;99.90;;;;;;5035962;28;20041;-69
2022/08/07 04:34:07;;;;;;;5.22;3.55;;;9.70;99.90;;;;;;5035880;28;20041;-69
2022/08/07 04:36:33;;;;;;;5.07;3.42;;;9.70;99.90;;;;;;5035925;28;20046;-69
2022/08/07 04:39:00;;;;;;;6.18;3.92;;;9.70;99.90;;;;;;5034793;28;20506;-69
2022/08/07 04:41:26;;;;;;;5.88;3.28;;;9.70;99.90;;;;;;5035111;28;20041;-69
2022/08/07 04:43:54;;;;;;;5.03;3.72;;;9.80;99.90;;;;;;5034498;28;20373;-69
2022/08/07 04:46:39;;;;;;;4.78;3.30;;;9.80;99.90;;;;;;5035048;28;20073;-69
2022/08/07 04:49:22;;;;;;;5.65;3.60;;;9.70;99.90;;;;;;5017259;28;20049;-69
2022/08/07 04:52:03;;;;;;;5.32;3.20;;;9.60;99.90;;;;;;5035464;28;20462;-69
2022/08/07 04:55:09;;;;;;;5.15;3.35;;;9.60;99.90;;;;;;5034843;28;20041;-69
2022/08/07 04:58:08;;;;;;;5.93;4.22;;;9.80;99.90;;;;;;5034816;28;20103;-69
2022/08/07 05:00:46;;;;;;;5.78;3.50;;;9.90;99.90;;;;;;5017867;28;20494;-69
2022/08/07 05:03:26;;;;;;;6.45;3.80;;;10.00;99.90;;;;;;5034628;28;20120;-69
2022/08/07 05:06:18;;;;;;;5.18;3.75;;;10.20;99.90;;;;;;5017910;28;20049;-69
2022/08/07 05:09:07;;;;;;;6.05;4.15;;;10.30;99.90;;;;;;5035136;28;20107;-69
2022/08/07 05:11:38;;;;;;;5.25;3.45;;;10.50;99.90;;;;;;5016956;28;20052;-69
2022/08/07 05:14:12;;;;;;;6.25;4.03;;;10.60;99.90;;;;;;5034545;28;20049;-70
2022/08/07 05:16:40;;;;;;;6.40;4.35;;;10.80;99.90;;;;;;5034910;28;20045;-69
2022/08/07 05:19:22;;;;;;;6.25;4.18;;;10.90;99.90;;;;;;5016894;28;20091;-69
2022/08/07 05:21:55;;;;;;;6.85;4.30;;;11.10;99.90;;;;;;5016681;28;20037;-70
2022/08/07 05:24:22;;;;;;;6.88;4.43;;;11.20;99.90;;;;;;5034324;28;20115;-69
2022/08/07 05:26:52;;;;;;;7.20;4.43;;;11.40;99.90;;;;;;5034238;28;20437;-69
2022/08/07 05:29:20;;;;;;;7.10;4.35;;;11.50;99.90;;;;;;5034150;28;20057;-70
2022/08/07 05:31:48;;;;;;;7.60;4.65;;;11.60;99.90;;;;;;5034174;28;20045;-70
2022/08/07 05:34:15;;;;;;;8.35;4.78;;;11.80;99.90;;;;;;5033942;28;20045;-70
2022/08/07 05:36:48;;;;;;;8.02;5.07;;;11.90;99.90;;;;;;5034804;28;20041;-70
2022/08/07 05:39:15;;;;;;;6.60;4.65;;;12.00;99.90;;;;;;5034072;28;20125;-70
2022/08/07 05:41:42;;;;;;;6.30;4.43;;;12.20;99.90;;;;;;5034440;28;20045;-70
2022/08/07 05:44:09;;;;;;;9.65;5.43;;;12.40;99.90;;;;;;5033932;28;20038;-69
2022/08/07 05:46:40;;;;;;;8.40;5.53;;;12.50;99.90;;;;;;5033570;28;20497;-70
2022/08/07 05:49:07;;;;;;;8.45;5.20;;;12.70;99.90;;;;;;5033774;28;20045;-69
2022/08/07 05:51:33;;;;;;;9.02;5.65;;;12.80;99.90;;;;;;5033807;28;20389;-69
2022/08/07 05:54:00;;;;;;;7.28;4.82;;;13.00;99.90;;;;;;5033842;28;20042;-70
2022/08/07 05:56:28;;;;;;;7.50;4.80;;;13.10;99.90;;;;;;5033932;28;20045;-70
2022/08/07 05:58:54;;;;;;;8.55;4.88;;;13.30;99.90;;;;;;5033639;28;20072;-70
2022/08/07 06:01:22;;;;;;;8.32;5.07;;;13.40;99.90;;;;;;5033588;28;20049;-70
2022/08/07 06:03:51;;;;;;;7.93;5.07;;;13.40;99.90;;;;;;5033530;28;20045;-70
2022/08/07 06:06:18;;;;;;;8.77;5.55;;;13.60;99.90;;;;;;5033701;28;20049;-70
2022/08/07 06:08:45;;;;;;;8.30;5.50;;;13.70;99.90;;;;;;5033966;28;20045;-70
2022/08/07 06:11:12;;;;;;;7.50;5.35;;;13.80;99.90;;;;;;5033493;28;20041;-70
2022/08/07 06:13:39;;;;;;;8.85;5.15;;;13.90;99.90;;;;;;5033527;28;20045;-70
2022/08/07 06:16:07;;;;;;;7.88;5.15;;;14.00;99.90;;;;;;5033449;28;20052;-70
2022/08/07 06:18:34;;;;;;;7.72;5.28;;;14.10;99.90;;;;;;5033870;28;20048;-70
2022/08/07 06:21:01;;;;;;;7.45;5.18;;;14.20;99.90;;;;;;5016709;28;20041;-70
2022/08/07 06:23:28;;;;;;;8.10;5.32;;;14.30;99.90;;;;;;5033347;28;20041;-70
2022/08/07 06:25:55;;;;;;;7.85;5.20;;;14.40;99.90;;;;;;5033281;28;20041;-70
2022/08/07 06:28:20;;;;;;;8.73;5.53;;;14.50;99.90;;;;;;5015423;28;20050;-70
2022/08/07 06:30:46;;;;;;;9.05;6.10;;;14.60;99.90;;;;;;5015606;28;20100;-70
2022/08/07 06:33:12;;;;;;;8.57;5.40;;;14.70;99.90;;;;;;5033648;28;20451;-70
2022/08/07 06:35:37;;;;;;;9.35;5.90;;;14.80;99.90;;;;;;5033222;28;20045;-70
2022/08/07 06:38:04;;;;;;;9.27;5.70;;;15.00;99.90;;;;;;5033915;28;20049;-70
2022/08/07 06:40:38;;;;;;;9.50;5.90;;;15.10;99.90;;;;;;5033136;28;20038;-70
2022/08/07 06:43:07;;;;;;;7.78;5.70;;;15.20;99.90;;;;;;5033617;28;20037;-70
2022/08/07 06:45:33;;;;;;;7.20;5.10;;;15.30;99.90;;;;;;5033090;28;20037;-70
2022/08/07 06:47:59;;;;;;;6.75;5.10;;;15.40;99.90;;;;;;5033364;28;20045;-70
2022/08/07 06:50:26;;;;;;;7.13;5.20;;;15.50;99.90;;;;;;5032954;28;20442;-70
2022/08/07 06:52:53;;;;;;;8.63;5.22;;;15.60;99.90;;;;;;5032731;28;20477;-70
2022/08/07 06:55:22;;;;;;;7.05;5.10;;;15.70;99.90;;;;;;5033001;28;20085;-70
2022/08/07 06:57:50;;;;;;;7.43;4.80;;;15.90;99.90;;;;;;5015654;28;20048;-64
2022/08/07 07:00:18;;;;;;;6.43;4.82;;;16.00;99.90;;;;;;5033060;28;20041;-64
2022/08/07 07:02:44;;;;;;;7.13;5.00;;;16.00;99.90;;;;;;5015823;28;20095;-64
2022/08/07 07:05:11;;;;;;;7.03;4.88;;;16.10;99.90;;;;;;5032538;28;20494;-64
2022/08/07 07:07:37;;;;;;;7.32;4.88;;;16.20;99.90;;;;;;5035885;28;20049;-64
2022/08/07 07:10:03;;;;;;;6.20;4.57;;;16.30;99.90;;;;;;5036553;28;20045;-64
2022/08/07 07:12:53;;;;;;;7.25;4.90;;;16.40;99.90;;;;;;5019358;28;20123;-64
2022/08/07 07:15:26;;;;;;;6.65;5.18;;;16.50;99.90;;;;;;5036739;28;20123;-64
2022/08/07 07:17:55;;;;;;;6.90;4.10;;;16.60;99.90;;;;;;5019922;28;20076;-64
2022/08/07 07:20:27;;;;;;;5.75;3.90;;;16.70;99.90;;;;;;5036755;28;20049;-64
2022/08/07 07:22:54;;;;;;;6.28;4.13;;;16.80;99.90;;;;;;5036112;28;20041;-64
2022/08/07 07:25:21;;;;;;;6.00;3.90;;;16.90;99.90;;;;;;5036470;28;20064;-64
2022/08/07 07:28:01;;;;;;;6.88;4.32;;;17.00;99.90;;;;;;5036244;28;20057;-64
2022/08/07 07:30:31;;;;;;;4.70;3.13;;;17.10;99.90;;;;;;5037115;28;20123;-64
2022/08/07 07:32:59;;;;;;;5.40;2.88;;;17.10;99.90;;;;;;5036383;28;20099;-64
2022/08/07 07:35:26;;;;;;;3.72;2.70;;;17.20;99.90;;;;;;5035420;28;20111;-64
2022/08/07 07:37:53;;;;;;;3.83;2.70;;;17.30;99.90;;;;;;5035860;28;20045;-65
2022/08/07 07:40:21;;;;;;;4.50;2.78;;;17.30;99.90;;;;;;5036597;28;20172;-64
2022/08/07 07:42:53;;;;;;;4.82;2.42;;;17.40;99.90;;;;;;5036534;28;20054;-64
2022/08/07 07:45:21;;;;;;;5.13;3.20;;;17.50;99.90;;;;;;5036546;28;20049;-63
2022/08/07 07:47:50;;;;;;;4.32;2.63;;;17.60;99.90;;;;;;5036669;28;20128;-63
2022/08/07 07:50:19;;;;;;;4.90;2.92;;;17.80;99.90;;;;;;5035818;28;20034;-64
2022/08/07 07:52:45;;;;;;;4.20;3.40;;;17.90;99.90;;;;;;5035994;28;20042;-64
2022/08/07 07:55:13;;;;;;;3.95;3.10;;;17.90;99.90;;;;;;5035898;28;20037;-63
2022/08/07 07:57:39;;;;;;;6.57;3.50;;;18.00;99.90;;;;;;5035769;28;20052;-63
2022/08/07 08:00:07;;;;;;;4.63;3.17;;;18.10;99.90;;;;;;5035794;28;20045;-63
2022/08/07 08:02:36;;;;;;;4.28;3.28;;;18.10;99.90;;;;;;5035783;28;20049;-63
2022/08/07 08:05:05;;;;;;;5.57;3.35;;;18.20;99.90;;;;;;5035636;28;20079;-63
2022/08/07 08:07:32;;;;;;;4.55;3.50;;;18.20;99.90;;;;;;5035619;28;20099;-63
2022/08/07 08:10:00;;;;;;;5.15;3.45;;;18.30;99.90;;;;;;5035467;28;20129;-63
2022/08/07 08:12:26;;;;;;;4.13;2.95;;;18.30;99.90;;;;;;5035225;28;20458;-63
2022/08/07 08:14:52;;;;;;;4.95;3.00;;;18.40;99.90;;;;;;5035444;28;20088;-64
2022/08/07 08:17:19;;;;;;;4.95;3.33;;;18.50;99.90;;;;;;5035359;28;20056;-64
2022/08/07 08:19:46;;;;;;;4.40;2.97;;;18.50;99.90;;;;;;5017391;28;20494;-65
2022/08/07 08:27:43;;;;;;;4.13;2.95;;;18.60;99.90;;;;;;5035333;28;20054;-64
2022/08/07 08:30:12;;;;;;;4.55;3.13;;;18.70;99.90;;;;;;5034986;28;20049;-64
2022/08/07 08:32:45;;;;;;;4.50;2.88;;;18.80;99.90;;;;;;5017940;28;20071;-64
2022/08/07 08:35:15;;;;;;;3.70;2.78;;;18.90;99.90;;;;;;5035297;28;20099;-64
2022/08/07 08:37:43;;;;;;;4.65;2.75;;;18.90;99.90;;;;;;5034869;28;20103;-64
2022/08/07 08:40:16;;;;;;;6.85;3.33;;;19.00;99.90;;;;;;5034905;28;20041;-64
2022/08/07 08:42:48;;;;;;;4.18;2.88;;;19.10;99.90;;;;;;5034969;28;20490;-64
2022/08/07 08:45:50;;;;;;;4.68;3.00;;;19.20;99.90;;;;;;5035630;28;20049;-65
2022/08/07 08:48:18;;;;;;;4.45;3.00;;;19.30;99.90;;;;;;5031124;28;20092;-64
2022/08/07 08:50:53;;;;;;;3.65;2.80;;;19.40;99.90;;;;;;5034708;28;20088;-64
2022/08/07 08:53:28;;;;;;;3.58;2.78;;;19.50;99.90;;;;;;5018012;28;20096;-64
2022/08/07 08:55:59;;;;;;;5.32;2.63;;;19.50;99.90;;;;;;5035083;28;20041;-64
2022/08/07 08:58:42;;;;;;;4.82;3.08;;;19.50;99.90;;;;;;5035263;28;20045;-64
2022/08/07 09:01:32;;;;;;;3.75;2.72;;;19.60;99.90;;;;;;5017604;28;20497;-64
2022/08/07 09:04:26;;;;;;;4.57;3.05;;;19.60;99.90;;;;;;4996169;28;20111;-64
2022/08/07 09:07:07;;;;;;;4.05;2.97;;;19.70;99.90;;;;;;5035276;28;20407;-64
2022/08/07 09:10:15;;;;;;;4.25;2.90;;;19.80;99.90;;;;;;5034895;28;20056;-65
2022/08/07 09:12:40;;;;;;;4.38;2.92;;;19.90;99.90;;;;;;5017185;28;20056;-64
2022/08/07 09:15:29;;;;;;;4.90;2.88;;;20.00;99.90;;;;;;5034380;28;20049;-64
2022/08/07 09:18:10;;;;;;;3.50;2.67;;;20.10;99.90;;;;;;5034792;28;20099;-64
2022/08/07 09:20:48;;;;;;;4.97;3.03;;;20.20;99.90;;;;;;5034674;28;20120;-63
2022/08/07 09:23:29;;;;;;;3.22;2.53;;;20.20;99.90;;;;;;5034110;28;20049;-64
2022/08/07 09:26:13;;;;;;;4.13;3.17;;;20.20;99.90;;;;;;5034478;28;20045;-64
2022/08/07 09:28:43;;;;;;;4.22;3.00;;;20.10;99.90;;;;;;5033845;28;20526;-64
2022/08/07 09:31:40;;;;;;;4.30;2.10;;;20.10;99.90;;;;;;5033810;28;20095;-64
2022/08/07 09:34:24;;;;;;;4.20;2.30;;;20.20;99.90;;;;;;5017193;28;20474;-63
2022/08/07 09:37:08;;;;;;;3.05;2.13;;;20.30;99.90;;;;;;5034487;28;20053;-64
2022/08/07 09:40:02;;;;;;;2.47;1.75;;;20.30;99.90;;;;;;5017124;28;20502;-64
2022/08/07 09:42:37;;;;;;;3.33;2.00;;;20.40;99.90;;;;;;5033809;28;20089;-63
2022/08/07 09:45:33;;;;;;;4.05;2.30;;;20.50;99.90;;;;;;5033767;28;20041;-63
2022/08/07 09:48:23;;;;;;;2.83;2.00;;;20.60;99.90;;;;;;5033665;28;20049;-64
2022/08/07 09:51:09;;;;;;;3.47;1.73;;;20.60;99.90;;;;;;5016491;28;20045;-64
2022/08/07 09:53:39;;;;;;;2.50;1.90;;;20.70;99.90;;;;;;5034262;28;20091;-64
2022/08/07 09:56:37;;;;;;;2.70;1.80;;;20.70;99.90;;;;;;5033885;28;20122;-63
2022/08/07 09:59:21;;;;;;;2.78;1.67;;;20.50;99.90;;;;;;5034119;28;20041;-63
2022/08/07 10:02:25;;;;;;;2.40;1.50;;;20.50;99.90;;;;;;5034063;28;20378;-64
2022/08/07 10:05:01;;;;;;;3.30;2.20;;;20.50;99.90;;;;;;4962739;28;20079;-64
2022/08/07 10:07:54;;;;;;;3.40;1.88;;;20.70;99.90;;;;;;5033144;28;20498;-64
2022/08/07 10:10:32;;;;;;;3.53;2.20;;;20.80;99.90;;;;;;5033215;28;20095;-63
2022/08/07 10:13:32;;;;;;;4.05;2.30;;;20.80;99.90;;;;;;5033357;28;20099;-63
2022/08/07 10:16:12;;;;;;;2.80;2.15;;;20.90;99.90;;;;;;4985551;28;20057;-63
2022/08/07 10:19:15;;;;;;;2.65;1.98;;;21.00;99.90;;;;;;5033807;28;20111;-63
2022/08/07 10:21:48;;;;;;;3.58;2.22;;;21.10;99.90;;;;;;5033275;28;20071;-63
2022/08/07 10:24:24;;;;;;;3.33;2.10;;;21.20;99.90;;;;;;5034017;28;20053;-64
2022/08/07 10:27:03;;;;;;;3.08;2.00;;;21.20;99.90;;;;;;5033202;28;20050;-65
2022/08/07 10:30:06;;;;;;;3.13;1.92;;;21.00;99.90;;;;;;5033932;28;20056;-64
2022/08/07 10:32:59;;;;;;;2.92;1.67;;;20.80;99.90;;;;;;5033788;28;20053;-65
2022/08/07 10:35:28;;;;;;;3.60;1.50;;;20.50;99.90;;;;;;5015514;28;20188;-65
2022/08/07 10:38:05;;;;;;;3.50;1.60;;;20.40;99.90;;;;;;5033014;28;20042;-64
2022/08/07 10:40:39;;;;;;;2.70;1.75;;;20.40;99.90;;;;;;5033160;28;20045;-64
2022/08/07 10:43:41;;;;;;;2.25;1.50;;;20.60;99.90;;;;;;5037439;28;20057;-64
2022/08/07 10:46:19;;;;;;;2.80;1.63;;;20.70;99.90;;;;;;5005849;28;20069;-65
2022/08/07 10:49:02;;;;;;;2.70;1.75;;;20.80;99.90;;;;;;5037130;28;20122;-65
2022/08/07 10:52:17;;;;;;;2.75;1.80;;;20.60;99.90;;;;;;5037386;28;20474;-64
2022/08/07 10:54:52;;;;;;;2.38;1.55;;;20.60;99.90;;;;;;4956352;29;20055;-65
2022/08/07 10:57:48;;;;;;;2.70;1.63;;;20.70;99.90;;;;;;5033154;28;20057;-64
2022/08/07 11:00:15;;;;;;;3.15;1.90;;;20.80;99.90;;;;;;5036763;28;20044;-64
2022/08/07 11:03:04;;;;;;;2.97;1.90;;;20.90;99.90;;;;;;5037745;28;20053;-65
2022/08/07 11:05:51;;;;;;;3.15;1.70;;;20.90;99.90;;;;;;5037394;28;20446;-64
2022/08/07 11:09:00;;;;;;;3.58;1.67;;;20.90;99.90;;;;;;5037250;28;20048;-64
2022/08/07 11:11:29;;;;;;;2.65;1.58;;;21.00;99.90;;;;;;5006163;28;20115;-64
2022/08/07 11:14:02;;;;;;;2.25;1.42;;;21.00;99.90;;;;;;5036886;28;20132;-64
2022/08/07 11:16:37;;;;;;;2.58;1.50;;;21.00;99.90;;;;;;5036984;28;20072;-64
2022/08/07 11:19:39;;;;;;;13.32;2.28;;;20.90;99.90;;;;;;5036984;28;20368;-64
2022/08/07 11:22:16;;;;;;;5.53;1.80;;;20.90;99.90;;;;;;5019776;28;20049;-64
2022/08/07 11:24:57;;;;;;;3.53;1.73;;;20.80;99.90;;;;;;5036371;28;20045;-64
2022/08/07 11:27:44;;;;;;;4.22;1.85;;;20.90;99.90;;;;;;5036664;28;20056;-64
2022/08/07 11:30:16;;;;;;;3.15;1.63;;;21.00;99.90;;;;;;5037029;28;20068;-64
2022/08/07 11:33:10;;;;;;;3.08;1.60;;;21.00;99.90;;;;;;5036636;28;20065;-64
2022/08/07 11:35:49;;;;;;;2.05;1.42;;;21.10;99.90;;;;;;5036189;28;20050;-64
2022/08/07 11:38:31;;;;;;;3.45;1.70;;;21.20;99.90;;;;;;5035932;28;20055;-64
2022/08/07 11:41:04;;;;;;;3.28;1.67;;;21.30;99.90;;;;;;5036710;28;20057;-64
2022/08/07 11:43:33;;;;;;;17.55;2.90;;;21.40;99.90;;;;;;5035991;28;20085;-64
2022/08/07 11:46:33;;;;;;;2.67;1.73;;;21.40;99.90;;;;;;5036066;28;20132;-64
2022/08/07 11:49:38;;;;;;;2.65;1.60;;;21.50;99.90;;;;;;5018834;28;20060;-64
2022/08/07 11:52:35;;;;;;;2.85;1.50;;;21.50;99.90;;;;;;5035726;28;20045;-64
2022/08/07 11:55:24;;;;;;;2.53;1.60;;;21.50;99.90;;;;;;5035885;28;20045;-64
2022/08/07 11:58:15;;;;;;;3.45;1.63;;;21.50;99.90;;;;;;5018710;28;20057;-65
2022/08/07 12:01:00;;;;;;;2.38;1.40;;;21.50;99.90;;;;;;5035883;28;20045;-64
2022/08/07 12:03:31;;;;;;;2.50;1.42;;;21.50;99.90;;;;;;5018945;28;20475;-65
2022/08/07 12:06:18;;;;;;;3.13;1.50;;;21.60;99.90;;;;;;5035817;28;20045;-64
2022/08/07 12:08:54;;;;;;;2.40;1.60;;;21.60;99.90;;;;;;5018440;28;20049;-64
2022/08/07 12:11:23;;;;;;;;;;;21.70;99.90;;;;;;5036580;28;20414;-64
2022/08/07 12:13:51;;;;;;;2.50;1.50;;;21.70;99.90;;;;;;5035478;28;19928;-64
2022/08/07 12:16:21;;;;;;;2.17;1.30;;;21.70;99.90;;;;;;5035431;28;20073;-64
2022/08/07 12:18:47;;;;;;;3.55;1.48;;;21.60;99.90;;;;;;5035457;28;20087;-64
2022/08/07 12:21:39;;;;;;;2.40;1.50;;;21.50;99.90;;;;;;5035232;28;20080;-65
2022/08/07 12:24:19;;;;;;;2.40;1.40;;;21.50;99.90;;;;;;5035742;28;20482;-64
2022/08/07 12:27:10;;;;;;;1.98;1.23;;;21.50;99.90;;;;;;5017978;28;20053;-64
2022/08/07 12:30:07;;;;;;;2.13;1.30;;;21.70;99.90;;;;;;5017058;28;20054;-64
2022/08/07 12:32:59;;;;;;;2.13;1.50;;;21.80;99.90;;;;;;5034792;28;20093;-64
2022/08/07 12:35:27;;;;;;;2.75;1.20;;;21.90;99.90;;;;;;5035131;28;20060;-64
2022/08/07 12:37:54;;;;;;;3.03;1.23;;;22.00;99.90;;;;;;5035133;28;20158;-64
2022/08/07 12:40:23;;;;;;;2.55;1.20;;;22.10;99.90;;;;;;5035004;28;20203;-64
2022/08/07 12:42:56;;;;;;;2.70;1.27;;;22.10;99.90;;;;;;5035326;28;20129;-65
2022/08/07 12:45:26;;;;;;;2.80;1.10;;;22.10;99.90;;;;;;5034931;28;20045;-64
2022/08/07 12:48:06;;;;;;;2.85;1.45;;;22.10;99.90;;;;;;5034876;28;20132;-64
2022/08/07 12:50:44;;;;;;;2.10;1.27;;;22.10;99.90;;;;;;5035153;28;20081;-64
2022/08/07 12:53:17;;;;;;;2.50;1.20;;;22.20;99.90;;;;;;5018088;28;20080;-64
2022/08/07 12:55:50;;;;;;;2.22;1.27;;;22.30;99.90;;;;;;5035106;28;20363;-64
2022/08/07 12:58:18;;;;;;;1.77;1.10;;;22.50;99.90;;;;;;5035192;28;20347;-64
2022/08/07 13:01:08;;;;;;;1.70;1.08;;;22.60;99.90;;;;;;5034546;28;20107;-64
2022/08/07 13:04:01;;;;;;;2.03;1.20;;;22.70;99.90;;;;;;5016928;28;20052;-64
2022/08/07 13:06:35;;;;;;;1.88;1.10;;;22.70;99.90;;;;;;5034650;28;20049;-64
2022/08/07 13:09:42;;;;;;;1.60;1.00;;;22.70;99.50;;;;;;5034739;28;20401;-64
2022/08/07 13:12:34;;;;;;;1.70;0.80;;;22.70;98.70;;;;;;5006602;28;20430;-64
2022/08/07 13:15:21;;;;;;;1.98;1.10;;;22.80;98.50;;;;;;5034944;28;20049;-64
2022/08/07 13:17:48;;;;;;;1.73;0.85;;;22.70;98.70;;;;;;5034821;28;20389;-64
2022/08/07 13:20:35;;;;;;;1.70;1.00;;;22.80;98.50;;;;;;5034178;28;20080;-64
2022/08/07 13:23:08;;;;;;;1.65;0.90;;;22.70;97.50;;;;;;5033986;28;20516;-63
2022/08/07 13:25:42;;;;;;;1.83;0.80;;;22.50;96.70;;;;;;5034155;28;20045;-65